Terminal Aerodrome Forecast
Issued by NWS

Home | Current Version | Previous Version | Text Only | Print | Product List | Glossary On
Versions: 1 2 3 4 5 6 7 8 9 10 11 12
000
FTAK31 PANC 301742
TAFADL
TAF
PADL 301742Z 3018/3118 34020KT P6SM SKC
     FM310000 36022G30KT P6SM VCSH SCT020 BKN040
     FM310600 36022G30KT 3SM -SN BKN020 OVC040
     FM311200 36022G33KT 1SM -SN BKN010 OVC040=

USA.gov is the U.S. government's official web portal to all federal, state and local government web resources and services.